createdAt,value
2017-06-24T00:00:59.642Z,10.47
2017-06-24T00:03:27.724Z,8.17
2017-06-24T00:05:55.331Z,7.57
2017-06-24T00:08:23.728Z,11.47
2017-06-24T00:10:51.721Z,12.23
2017-06-24T00:13:20.130Z,10.10
2017-06-24T00:15:47.741Z,10.73
2017-06-24T00:18:15.730Z,11.63
2017-06-24T00:20:43.421Z,9.80
2017-06-24T00:23:11.042Z,8.93
2017-06-24T00:25:39.017Z,8.23
2017-06-24T00:28:06.696Z,9.63
2017-06-24T00:30:34.360Z,8.60
2017-06-24T00:33:02.345Z,12.10
2017-06-24T00:35:29.964Z,10.30
2017-06-24T00:37:57.592Z,10.60
2017-06-24T00:40:26.310Z,8.97
2017-06-24T00:42:53.923Z,9.33
2017-06-24T00:45:21.557Z,7.77
2017-06-24T00:47:49.469Z,8.97
2017-06-24T00:50:17.905Z,7.00
2017-06-24T00:52:45.526Z,9.27
2017-06-24T00:55:13.508Z,8.30
2017-06-24T00:57:41.116Z,6.77
2017-06-24T01:00:08.741Z,9.87
2017-06-24T01:02:36.700Z,6.33
2017-06-24T01:05:04.326Z,7.23
2017-06-24T01:07:32.767Z,9.47
2017-06-24T01:10:00.733Z,7.07
2017-06-24T01:12:28.503Z,11.13
2017-06-24T01:14:56.116Z,9.80
2017-06-24T01:17:24.846Z,8.40
2017-06-24T01:19:52.451Z,7.77
2017-06-24T01:22:20.842Z,10.20
2017-06-24T01:24:49.593Z,13.53
2017-06-24T01:27:17.236Z,12.90
2017-06-24T01:29:44.917Z,9.87
2017-06-24T01:32:12.971Z,13.20
2017-06-24T01:34:40.735Z,10.20
2017-06-24T01:37:08.395Z,11.00
2017-06-24T01:39:36.387Z,11.37
2017-06-24T01:42:04.000Z,10.97
2017-06-24T01:44:31.624Z,11.23
2017-06-24T01:46:59.632Z,12.57
2017-06-24T01:49:27.242Z,13.30
2017-06-24T01:51:54.866Z,9.57
2017-06-24T01:54:22.866Z,15.50
2017-06-24T01:56:50.480Z,9.83
2017-06-24T01:59:18.193Z,8.40
2017-06-24T02:01:46.112Z,11.63
2017-06-24T02:04:13.746Z,10.67
2017-06-24T02:06:42.131Z,8.23
2017-06-24T02:09:10.871Z,9.30
2017-06-24T02:11:38.499Z,12.47
2017-06-24T02:14:06.126Z,10.87
2017-06-24T02:16:34.132Z,9.83
2017-06-24T02:19:01.735Z,9.73
2017-06-24T02:21:29.402Z,11.70
2017-06-24T02:23:57.323Z,14.23
2017-06-24T02:26:24.932Z,12.07
2017-06-24T02:28:52.544Z,11.87
2017-06-24T02:31:20.644Z,12.23
2017-06-24T02:33:48.324Z,8.80
2017-06-24T02:36:16.068Z,9.40
2017-06-24T02:38:44.011Z,10.87
2017-06-24T02:41:11.708Z,6.80
2017-06-24T02:43:39.320Z,9.87
2017-06-24T02:46:07.321Z,11.17
2017-06-24T02:48:34.936Z,11.70
2017-06-24T02:51:03.322Z,16.30
2017-06-24T02:53:32.045Z,9.33
2017-06-24T02:55:59.720Z,10.50
2017-06-24T02:58:27.332Z,13.33
2017-06-24T03:00:55.983Z,9.10
2017-06-24T03:03:23.636Z,18.17
2017-06-24T03:05:51.305Z,16.10
2017-06-24T03:08:19.216Z,10.13
2017-06-24T03:10:46.920Z,11.67
2017-06-24T03:13:14.582Z,21.53
2017-06-24T03:15:42.475Z,13.60
2017-06-24T03:18:10.087Z,10.03
2017-06-24T03:20:37.772Z,12.07
2017-06-24T03:23:05.716Z,15.23
2017-06-24T03:25:33.326Z,8.30
2017-06-24T03:28:00.939Z,11.53
2017-06-24T03:30:29.115Z,14.77
2017-06-24T03:32:57.020Z,17.73
2017-06-24T03:35:24.645Z,13.30
2017-06-24T03:37:52.631Z,11.13
2017-06-24T03:40:20.253Z,8.80
2017-06-24T03:42:47.878Z,16.80
2017-06-24T03:45:15.946Z,9.43
2017-06-24T03:47:43.689Z,12.20
2017-06-24T03:50:11.308Z,10.40
2017-06-24T03:52:40.039Z,8.43
2017-06-24T03:55:07.652Z,11.23
2017-06-24T03:57:36.033Z,12.93
2017-06-24T04:00:04.151Z,7.70
2017-06-24T04:02:31.759Z,14.70
2017-06-24T04:05:00.191Z,8.00
2017-06-24T04:07:28.098Z,13.67
2017-06-24T04:09:56.487Z,9.53
2017-06-24T04:12:24.864Z,15.13
2017-06-24T04:14:53.582Z,15.70
2017-06-24T04:17:21.192Z,11.70
2017-06-24T04:19:48.849Z,13.77
2017-06-24T04:22:16.768Z,14.90
2017-06-24T04:24:44.388Z,13.77
2017-06-24T04:27:12.018Z,20.57
2017-06-24T04:29:40.001Z,16.70
2017-06-24T04:32:07.616Z,13.90
2017-06-24T04:34:35.236Z,15.83
2017-06-24T04:37:03.146Z,14.00
2017-06-24T04:39:30.760Z,18.37
2017-06-24T04:41:58.399Z,15.10
2017-06-24T04:44:26.568Z,13.83
2017-06-24T04:46:54.179Z,12.80
2017-06-24T04:49:22.712Z,13.30
2017-06-24T04:51:50.652Z,15.37
2017-06-24T04:54:18.342Z,13.50
2017-06-24T04:56:46.020Z,16.23
2017-06-24T04:59:13.948Z,10.43
2017-06-24T05:01:41.569Z,8.73
2017-06-24T05:04:09.179Z,12.50
2017-06-24T05:06:37.136Z,12.93
2017-06-24T05:09:04.824Z,14.60
2017-06-24T05:11:32.487Z,14.80
2017-06-24T05:14:00.551Z,16.50
2017-06-24T05:16:28.239Z,12.50
2017-06-24T05:18:55.901Z,13.90
2017-06-24T05:21:23.823Z,17.80
2017-06-24T05:23:51.445Z,14.47
2017-06-24T05:26:19.061Z,17.40
2017-06-24T05:28:47.012Z,11.63
2017-06-24T05:31:14.722Z,13.10
2017-06-24T05:33:42.336Z,15.10
2017-06-24T05:36:10.323Z,14.83
2017-06-24T05:38:37.935Z,15.83
2017-06-24T05:41:06.376Z,10.87
2017-06-24T05:43:34.548Z,12.33
2017-06-24T05:46:02.160Z,8.97
2017-06-24T05:48:30.554Z,13.13
2017-06-24T05:50:58.578Z,14.10
2017-06-24T05:53:26.202Z,13.20
2017-06-24T05:55:53.816Z,14.80
2017-06-24T05:58:21.825Z,11.77
2017-06-24T06:00:49.617Z,14.13
2017-06-24T06:03:17.235Z,16.30
2017-06-24T06:05:45.225Z,13.87
2017-06-24T06:08:12.858Z,18.43
2017-06-24T06:10:41.241Z,13.43
2017-06-24T06:13:09.278Z,15.73
2017-06-24T06:15:36.895Z,13.80
2017-06-24T06:18:04.683Z,9.87
2017-06-24T06:20:32.588Z,15.00
2017-06-24T06:23:00.972Z,18.03
2017-06-24T06:25:29.347Z,14.67
2017-06-24T06:27:58.196Z,12.00
2017-06-24T06:30:25.819Z,10.80
2017-06-24T06:32:53.623Z,14.27
2017-06-24T06:35:21.269Z,11.63
2017-06-24T06:37:48.947Z,13.90
2017-06-24T06:40:16.903Z,17.30
2017-06-24T06:42:44.512Z,15.10
2017-06-24T06:45:13.900Z,12.07
2017-06-24T06:47:41.819Z,12.30
2017-06-24T06:50:09.436Z,15.47
2017-06-24T06:52:37.086Z,15.03
2017-06-24T06:55:05.008Z,13.60
2017-06-24T06:57:32.718Z,25.93
2017-06-24T07:00:00.328Z,12.17
2017-06-24T07:02:28.314Z,11.23
2017-06-24T07:04:55.991Z,14.20
2017-06-24T07:07:23.603Z,11.33
2017-06-24T07:09:52.272Z,13.50
2017-06-24T07:12:19.918Z,15.80
2017-06-24T07:14:47.531Z,17.27
2017-06-24T07:17:15.499Z,13.10
2017-06-24T07:19:43.191Z,17.57
2017-06-24T07:22:10.804Z,13.70
2017-06-24T07:24:39.559Z,13.30
2017-06-24T07:27:07.167Z,15.80
2017-06-24T07:29:34.780Z,14.37
2017-06-24T07:32:02.718Z,14.77
2017-06-24T07:34:30.493Z,19.23
2017-06-24T07:36:58.122Z,13.97
2017-06-24T07:39:26.122Z,14.77
2017-06-24T07:41:53.889Z,11.60
2017-06-24T07:44:21.504Z,15.77
2017-06-24T07:46:50.256Z,15.57
2017-06-24T07:49:17.886Z,15.33
2017-06-24T07:51:45.662Z,12.27
2017-06-24T07:54:13.600Z,13.07
2017-06-24T07:56:41.215Z,20.67
2017-06-24T07:59:08.955Z,13.90
2017-06-24T08:01:36.928Z,19.83
2017-06-24T08:04:04.548Z,17.00
2017-06-24T08:06:32.164Z,10.63
2017-06-24T08:09:00.133Z,13.87
2017-06-24T08:11:27.794Z,21.33
2017-06-24T08:13:55.417Z,13.80
2017-06-24T08:16:23.393Z,17.50
2017-06-24T08:18:51.068Z,14.80
2017-06-24T08:21:18.684Z,19.23
2017-06-24T08:23:47.349Z,14.27
2017-06-24T08:26:15.736Z,12.70
2017-06-24T08:28:44.195Z,20.40
2017-06-24T08:31:11.958Z,15.40
2017-06-24T08:33:39.572Z,19.63
2017-06-24T08:36:07.540Z,13.17
2017-06-24T08:38:35.169Z,15.87
2017-06-24T08:41:03.613Z,13.50
2017-06-24T08:43:31.620Z,18.07
2017-06-24T08:46:00.043Z,18.53
2017-06-24T08:48:27.825Z,12.10
2017-06-24T08:50:55.777Z,16.10
2017-06-24T08:53:23.388Z,12.20
2017-06-24T08:55:51.012Z,15.20
2017-06-24T08:58:18.930Z,18.50
2017-06-24T09:00:47.348Z,12.00
2017-06-24T09:03:14.964Z,12.60
2017-06-24T09:05:43.811Z,14.80
2017-06-24T09:08:11.437Z,12.67
2017-06-24T09:10:39.067Z,15.23
2017-06-24T09:13:07.090Z,13.67
2017-06-24T09:15:34.711Z,18.27
2017-06-24T09:18:03.168Z,15.60
2017-06-24T09:20:30.822Z,15.97
2017-06-24T09:22:58.451Z,14.87
2017-06-24T09:25:26.458Z,19.07
2017-06-24T09:27:54.147Z,19.97
2017-06-24T09:30:22.528Z,19.27
2017-06-24T09:32:51.237Z,19.80
2017-06-24T09:35:18.852Z,21.67
2017-06-24T09:37:46.483Z,20.93
2017-06-24T09:40:14.428Z,17.03
2017-06-24T09:42:42.044Z,16.63
2017-06-24T09:45:09.784Z,18.50
2017-06-24T09:47:37.724Z,20.50
2017-06-24T09:50:05.430Z,15.80
2017-06-24T09:52:33.057Z,14.10
2017-06-24T09:55:01.070Z,17.03
2017-06-24T09:57:28.687Z,14.77
2017-06-24T09:59:56.304Z,21.83
2017-06-24T10:02:24.995Z,21.37
2017-06-24T10:04:53.375Z,17.53
2017-06-24T10:07:21.924Z,24.67
2017-06-24T10:09:49.860Z,19.80
2017-06-24T10:12:17.660Z,17.70
2017-06-24T10:14:45.524Z,19.90
2017-06-24T10:17:13.684Z,17.73
2017-06-24T10:19:41.313Z,17.83
2017-06-24T10:22:09.111Z,22.17
2017-06-24T10:24:37.055Z,21.90
2017-06-24T10:27:04.672Z,18.50
2017-06-24T10:29:32.403Z,22.63
2017-06-24T10:32:00.392Z,21.30
2017-06-24T10:34:28.007Z,24.60
2017-06-24T10:36:55.620Z,22.33
2017-06-24T10:39:23.766Z,21.27
2017-06-24T10:41:51.477Z,20.77
2017-06-24T10:44:19.877Z,21.37
2017-06-24T10:46:47.898Z,21.73
2017-06-24T10:49:15.526Z,18.93
2017-06-24T10:51:43.136Z,14.87
2017-06-24T10:54:11.144Z,16.87
2017-06-24T10:56:38.764Z,23.17
2017-06-24T10:59:06.383Z,17.17
2017-06-24T11:01:34.340Z,20.10
2017-06-24T11:04:02.043Z,20.10
2017-06-24T11:06:29.662Z,17.60
2017-06-24T11:08:57.756Z,15.07
2017-06-24T11:11:25.390Z,22.27
2017-06-24T11:13:53.017Z,14.93
2017-06-24T11:16:21.754Z,18.43
2017-06-24T11:18:49.428Z,18.43
2017-06-24T11:21:17.039Z,15.60
2017-06-24T11:23:45.747Z,18.30
2017-06-24T11:26:13.435Z,15.13
2017-06-24T11:28:41.052Z,20.13
2017-06-24T11:31:09.887Z,20.20
2017-06-24T11:33:37.549Z,21.17
2017-06-24T11:36:05.168Z,20.63
2017-06-24T11:38:33.151Z,17.17
2017-06-24T11:41:00.862Z,19.70
2017-06-24T11:43:28.475Z,16.90
2017-06-24T11:45:56.387Z,18.00
2017-06-24T11:48:24.004Z,19.63
2017-06-24T11:50:51.624Z,20.90
2017-06-24T11:53:20.083Z,20.23
2017-06-24T11:55:47.699Z,17.47
2017-06-24T11:58:15.499Z,19.70
2017-06-24T12:00:43.443Z,17.53
2017-06-24T12:03:11.061Z,20.37
2017-06-24T12:05:38.791Z,19.37
2017-06-24T12:08:06.797Z,27.17
2017-06-24T12:10:35.209Z,25.13
2017-06-24T12:13:02.842Z,22.97
2017-06-24T12:15:31.590Z,25.33
2017-06-24T12:17:59.208Z,16.53
2017-06-24T12:20:26.946Z,22.17
2017-06-24T12:22:55.087Z,21.17
2017-06-24T12:25:22.717Z,16.67
2017-06-24T12:27:50.335Z,20.17
2017-06-24T12:30:18.259Z,19.00
2017-06-24T12:32:45.871Z,21.37
2017-06-24T12:35:13.488Z,23.30
2017-06-24T12:37:41.407Z,20.57
2017-06-24T12:40:09.796Z,22.03
2017-06-24T12:42:38.189Z,24.33
2017-06-24T12:45:05.832Z,20.13
2017-06-24T12:47:34.225Z,20.90
2017-06-24T12:50:02.208Z,26.43
2017-06-24T12:52:29.820Z,23.30
2017-06-24T12:54:57.442Z,21.67
2017-06-24T12:57:25.396Z,21.70
2017-06-24T12:59:53.026Z,24.43
2017-06-24T13:02:21.404Z,19.67
2017-06-24T13:04:50.095Z,22.63
2017-06-24T13:07:18.494Z,18.70
2017-06-24T13:09:46.214Z,21.13
2017-06-24T13:12:14.131Z,17.13
2017-06-24T13:14:41.758Z,16.50
2017-06-24T13:17:10.304Z,15.40
2017-06-24T13:19:38.262Z,21.30
2017-06-24T13:22:05.954Z,17.33
2017-06-24T13:24:33.568Z,17.00
2017-06-24T13:27:01.566Z,15.77
2017-06-24T13:29:29.185Z,15.27
2017-06-24T13:31:56.804Z,17.60
2017-06-24T13:34:24.750Z,15.87
2017-06-24T13:36:52.364Z,16.47
2017-06-24T13:39:49.164Z,12.80
2017-06-24T13:42:16.778Z,15.23
2017-06-24T13:44:44.391Z,14.13
2017-06-24T13:47:12.031Z,14.90
2017-06-24T13:49:39.658Z,16.43
2017-06-24T13:52:08.368Z,13.53
2017-06-24T13:54:35.990Z,13.00
2017-06-24T13:57:04.368Z,12.60
2017-06-24T13:59:33.118Z,10.20
2017-06-24T14:02:00.750Z,12.70
2017-06-24T14:04:28.359Z,11.20
2017-06-24T14:06:56.288Z,13.83
2017-06-24T14:09:23.910Z,10.43
2017-06-24T14:11:52.481Z,12.90
2017-06-24T14:14:21.219Z,16.03
2017-06-24T14:16:48.828Z,10.60
2017-06-24T14:19:16.588Z,10.27
2017-06-24T14:21:44.604Z,8.73
2017-06-24T14:24:12.211Z,9.10
2017-06-24T14:26:39.820Z,9.60
2017-06-24T14:29:07.806Z,7.63
2017-06-24T14:31:35.486Z,6.90
2017-06-24T14:34:03.114Z,10.23
2017-06-24T14:36:31.034Z,10.57
2017-06-24T14:38:58.651Z,12.30
2017-06-24T14:41:26.266Z,9.70
2017-06-24T14:43:54.185Z,8.77
2017-06-24T14:46:21.806Z,7.17
2017-06-24T14:48:50.243Z,14.23
2017-06-24T14:51:18.162Z,9.70
2017-06-24T14:53:46.536Z,6.70
2017-06-24T14:56:14.922Z,7.70
2017-06-24T14:58:43.628Z,7.20
2017-06-24T15:01:11.253Z,7.83
2017-06-24T15:03:38.863Z,6.20
2017-06-24T15:06:06.835Z,12.70
2017-06-24T15:08:34.453Z,6.13
2017-06-24T15:11:02.841Z,10.63
2017-06-24T15:13:31.544Z,6.33
2017-06-24T15:15:59.169Z,5.43
2017-06-24T15:18:26.794Z,9.63
2017-06-24T15:20:54.783Z,5.80
2017-06-24T15:23:22.392Z,4.97
2017-06-24T15:25:50.023Z,6.93
2017-06-24T15:28:17.916Z,6.20
2017-06-24T15:30:45.719Z,6.50
2017-06-24T15:33:13.502Z,5.10
2017-06-24T15:35:41.778Z,8.37
2017-06-24T15:38:09.522Z,5.70
2017-06-24T15:40:37.307Z,5.93
2017-06-24T15:43:05.357Z,7.47
2017-06-24T15:45:33.121Z,7.77
2017-06-24T15:48:00.906Z,6.60
2017-06-24T15:50:29.178Z,8.03
2017-06-24T15:52:56.940Z,6.27
2017-06-24T15:55:24.713Z,6.30
2017-06-24T15:57:52.891Z,6.13
2017-06-24T16:00:20.651Z,7.17
2017-06-24T16:02:48.417Z,11.23
2017-06-24T16:05:16.585Z,7.50
2017-06-24T16:07:44.372Z,6.57
2017-06-24T16:10:12.780Z,9.40
2017-06-24T16:12:40.846Z,6.90
2017-06-24T16:15:08.650Z,6.23
2017-06-24T16:17:36.333Z,6.50
2017-06-24T16:20:04.384Z,7.60
2017-06-24T16:22:32.158Z,6.97
2017-06-24T16:24:59.840Z,7.60
2017-06-24T16:27:28.186Z,5.83
2017-06-24T16:29:55.965Z,6.27
2017-06-24T16:32:23.728Z,9.90
2017-06-24T16:34:51.798Z,7.67
2017-06-24T16:37:19.487Z,10.23
2017-06-24T16:39:48.042Z,8.37
2017-06-24T16:42:16.040Z,7.53
2017-06-24T16:44:44.589Z,6.30
2017-06-24T16:47:12.364Z,7.60
2017-06-24T16:49:40.534Z,8.27
2017-06-24T16:52:08.294Z,10.07
2017-06-24T16:54:35.982Z,8.83
2017-06-24T16:57:04.593Z,9.57
2017-06-24T16:59:32.296Z,7.50
2017-06-24T17:02:00.060Z,10.03
2017-06-24T17:04:28.242Z,8.67
2017-06-24T17:06:55.997Z,6.97
2017-06-24T17:09:23.786Z,7.60
2017-06-24T17:11:51.937Z,7.03
2017-06-24T17:14:19.714Z,9.43
2017-06-24T17:16:47.429Z,8.53
2017-06-24T17:19:15.558Z,9.00
2017-06-24T17:21:43.415Z,11.10
2017-06-24T17:24:11.061Z,11.50
2017-06-24T17:26:39.062Z,11.13
2017-06-24T17:29:06.841Z,11.20
2017-06-24T17:31:35.280Z,13.07
2017-06-24T17:34:03.351Z,20.23
2017-06-24T17:36:31.264Z,5.57
2017-06-24T17:38:59.919Z,5.03
2017-06-24T17:41:27.995Z,7.97
2017-06-24T17:43:55.753Z,5.57
2017-06-24T17:46:23.536Z,4.40
2017-06-24T17:48:51.687Z,5.43
2017-06-24T17:51:19.383Z,5.70
2017-06-24T17:53:47.798Z,8.33
2017-06-24T17:56:15.954Z,5.67
2017-06-24T17:58:43.706Z,5.83
2017-06-24T18:01:12.250Z,4.60
2017-06-24T18:03:40.047Z,4.50
2017-06-24T18:06:08.546Z,8.50
2017-06-24T18:08:36.658Z,5.70
2017-06-24T18:11:04.292Z,9.30
2017-06-24T18:13:32.105Z,4.90
2017-06-24T18:16:00.256Z,8.07
2017-06-24T18:18:27.946Z,10.03
2017-06-24T18:20:55.704Z,6.80
2017-06-24T18:23:23.856Z,10.60
2017-06-24T18:25:51.643Z,6.80
2017-06-24T18:28:19.507Z,5.90
2017-06-24T18:30:47.578Z,7.57
2017-06-24T18:33:15.344Z,8.87
2017-06-24T18:35:43.105Z,6.93
2017-06-24T18:38:11.176Z,8.50
2017-06-24T18:40:38.968Z,8.70
2017-06-24T18:43:07.369Z,7.83
2017-06-24T18:45:35.579Z,13.23
2017-06-24T18:48:03.341Z,11.00
2017-06-24T18:50:31.003Z,8.33
2017-06-24T18:52:58.956Z,9.60
2017-06-24T18:55:26.756Z,10.97
2017-06-24T18:57:54.620Z,11.30
2017-06-24T19:00:22.780Z,11.93
2017-06-24T19:02:50.660Z,7.23
2017-06-24T19:05:18.425Z,10.37
2017-06-24T19:07:46.482Z,11.07
2017-06-24T19:10:14.169Z,6.53
2017-06-24T19:12:41.920Z,8.93
2017-06-24T19:15:09.905Z,12.93
2017-06-24T19:17:37.663Z,11.03
2017-06-24T19:20:05.416Z,10.30
2017-06-24T19:22:33.380Z,11.83
2017-06-24T19:25:01.053Z,12.50
2017-06-24T19:27:28.821Z,7.07
2017-06-24T19:29:56.870Z,7.30
2017-06-24T19:32:24.658Z,12.13
2017-06-24T19:34:52.431Z,8.70
2017-06-24T19:37:20.577Z,8.50
2017-06-24T19:39:48.465Z,9.50
2017-06-24T19:42:16.244Z,10.70
2017-06-24T19:44:45.212Z,9.30
2017-06-24T19:47:13.083Z,8.20
2017-06-24T19:49:41.153Z,8.90
2017-06-24T19:52:09.219Z,10.00
2017-06-24T19:54:37.077Z,15.30
2017-06-24T19:57:04.863Z,12.53
2017-06-24T19:59:33.015Z,8.03
2017-06-24T20:02:00.898Z,9.30
2017-06-24T20:04:28.575Z,11.70
2017-06-24T20:06:57.547Z,7.03
2017-06-24T20:09:25.302Z,10.47
2017-06-24T20:11:53.062Z,7.60
2017-06-24T20:14:20.721Z,9.17
2017-06-24T20:16:48.496Z,9.53
2017-06-24T20:19:16.474Z,8.80
2017-06-24T20:21:44.152Z,11.30
2017-06-24T20:24:11.838Z,11.90
2017-06-24T20:26:39.887Z,8.27
2017-06-24T20:29:07.648Z,11.23
2017-06-24T20:31:35.497Z,13.60
2017-06-24T20:34:03.506Z,10.50
2017-06-24T20:36:32.034Z,10.60
2017-06-24T20:38:59.822Z,8.50
2017-06-24T20:41:27.890Z,9.73
2017-06-24T20:43:55.737Z,10.97
2017-06-24T20:46:23.518Z,8.97
2017-06-24T20:48:51.675Z,6.70
2017-06-24T20:51:19.456Z,7.83
2017-06-24T20:53:47.133Z,9.90
2017-06-24T20:56:14.893Z,7.00
2017-06-24T20:58:42.570Z,7.67
2017-06-24T21:01:11.185Z,13.90
2017-06-24T21:03:39.000Z,11.97
2017-06-24T21:06:07.065Z,7.13
2017-06-24T21:08:34.713Z,10.00
2017-06-24T21:11:02.433Z,7.10
2017-06-24T21:13:30.462Z,10.17
2017-06-24T21:15:58.216Z,8.20
2017-06-24T21:18:25.839Z,7.70
2017-06-24T21:20:54.000Z,9.27
2017-06-24T21:23:21.706Z,11.37
2017-06-24T21:25:49.483Z,6.63
2017-06-24T21:28:17.472Z,7.53
2017-06-24T21:30:45.319Z,7.27
2017-06-24T21:33:13.090Z,10.30
2017-06-24T21:35:41.251Z,9.13
2017-06-24T21:38:08.899Z,8.83
2017-06-24T21:40:36.624Z,11.40
2017-06-24T21:43:06.730Z,10.80
2017-06-24T21:45:35.227Z,8.80
2017-06-24T21:48:02.959Z,9.23
2017-06-24T21:50:31.112Z,7.93
2017-06-24T21:52:58.873Z,9.30
2017-06-24T21:55:26.659Z,12.50
2017-06-24T21:57:54.807Z,10.03
2017-06-24T22:00:22.472Z,12.23
2017-06-24T22:02:50.258Z,8.90
2017-06-24T22:05:18.255Z,11.57
2017-06-24T22:07:46.761Z,10.87
2017-06-24T22:10:14.458Z,12.90
2017-06-24T22:12:42.453Z,10.37
2017-06-24T22:15:10.293Z,16.33
2017-06-24T22:17:38.151Z,9.57
2017-06-24T22:20:06.212Z,13.07
2017-06-24T22:22:33.984Z,8.63
2017-06-24T22:25:01.765Z,12.47
2017-06-24T22:27:29.852Z,11.40
2017-06-24T22:29:58.406Z,9.40
2017-06-24T22:32:26.130Z,9.73
2017-06-24T22:34:54.360Z,10.70
2017-06-24T22:37:22.109Z,10.40
2017-06-24T22:39:49.873Z,14.47
2017-06-24T22:42:17.894Z,20.97
2017-06-24T22:44:46.425Z,18.40
2017-06-24T22:47:14.206Z,12.93
2017-06-24T22:49:42.278Z,13.73
2017-06-24T22:52:10.128Z,14.30
2017-06-24T22:54:37.834Z,19.17
2017-06-24T22:57:06.797Z,14.50
2017-06-24T22:59:34.457Z,24.00
2017-06-24T23:02:02.148Z,15.20
2017-06-24T23:04:30.855Z,17.37
2017-06-24T23:06:58.488Z,15.43
2017-06-24T23:09:26.154Z,19.20
2017-06-24T23:11:54.898Z,13.50
2017-06-24T23:14:22.564Z,17.07
2017-06-24T23:16:50.248Z,13.33
2017-06-24T23:19:18.015Z,17.03
2017-06-24T23:21:45.774Z,17.90
2017-06-24T23:24:13.847Z,17.93
2017-06-24T23:26:41.694Z,17.50
2017-06-24T23:29:09.474Z,13.20
2017-06-24T23:31:37.459Z,15.83
2017-06-24T23:34:05.193Z,12.57
2017-06-24T23:36:32.956Z,11.90
2017-06-24T23:39:00.923Z,17.17
2017-06-24T23:41:28.792Z,14.73
2017-06-24T23:43:56.499Z,13.10
2017-06-24T23:46:25.263Z,14.43
2017-06-24T23:48:53.044Z,18.23
2017-06-24T23:51:21.486Z,12.77
2017-06-24T23:53:49.475Z,13.00
2017-06-24T23:56:17.155Z,15.27
2017-06-24T23:58:45.704Z,22.10
